sensor_id;sensor_type;location;lat;lon;timestamp;pressure;altitude;pressure_sealevel;temperature;humidity
55610;BME280;41486;52.502;13.486;2023-12-20T00:01:23;100425.66;;;6.34;100.00
55610;BME280;41486;52.502;13.486;2023-12-20T00:03:52;100416.16;;;6.32;100.00
55610;BME280;41486;52.502;13.486;2023-12-20T00:06:21;100420.25;;;6.37;100.00
55610;BME280;41486;52.502;13.486;2023-12-20T00:08:49;100410.91;;;6.32;100.00
55610;BME280;41486;52.502;13.486;2023-12-20T00:11:17;100410.16;;;6.30;100.00
55610;BME280;41486;52.502;13.486;2023-12-20T00:13:45;100413.72;;;6.29;100.00
55610;BME280;41486;52.502;13.486;2023-12-20T00:16:18;100420.19;;;6.24;100.00
55610;BME280;41486;52.502;13.486;2023-12-20T00:18:46;100408.22;;;6.20;100.00
55610;BME280;41486;52.502;13.486;2023-12-20T00:21:14;100394.88;;;6.24;100.00
55610;BME280;41486;52.502;13.486;2023-12-20T00:23:42;100392.25;;;6.24;100.00
55610;BME280;41486;52.502;13.486;2023-12-20T00:26:10;100399.16;;;6.25;100.00
55610;BME280;41486;52.502;13.486;2023-12-20T00:28:38;100398.69;;;6.19;100.00
55610;BME280;41486;52.502;13.486;2023-12-20T00:31:06;100390.69;;;6.22;100.00
55610;BME280;41486;52.502;13.486;2023-12-20T00:33:36;100393.66;;;6.30;100.00
55610;BME280;41486;52.502;13.486;2023-12-20T00:36:04;100384.41;;;6.24;100.00
55610;BME280;41486;52.502;13.486;2023-12-20T00:38:33;100394.03;;;6.24;100.00
55610;BME280;41486;52.502;13.486;2023-12-20T00:41:01;100390.00;;;6.32;100.00
55610;BME280;41486;52.502;13.486;2023-12-20T00:43:29;100387.03;;;6.24;100.00
55610;BME280;41486;52.502;13.486;2023-12-20T00:45:59;100388.63;;;6.27;100.00
55610;BME280;41486;52.502;13.486;2023-12-20T00:48:27;100389.19;;;6.32;100.00
55610;BME280;41486;52.502;13.486;2023-12-20T00:50:58;100379.94;;;6.26;100.00
55610;BME280;41486;52.502;13.486;2023-12-20T00:53:26;100381.81;;;6.24;100.00
55610;BME280;41486;52.502;13.486;2023-12-20T00:55:56;100388.63;;;6.27;100.00
55610;BME280;41486;52.502;13.486;2023-12-20T00:58:25;100378.81;;;6.30;100.00
55610;BME280;41486;52.502;13.486;2023-12-20T01:00:54;100377.97;;;6.30;100.00
55610;BME280;41486;52.502;13.486;2023-12-20T01:03:22;100386.47;;;6.34;100.00
55610;BME280;41486;52.502;13.486;2023-12-20T01:05:50;100389.38;;;6.29;100.00
55610;BME280;41486;52.502;13.486;2023-12-20T01:08:20;100386.50;;;6.19;100.00
55610;BME280;41486;52.502;13.486;2023-12-20T01:10:49;100389.81;;;6.21;100.00
55610;BME280;41486;52.502;13.486;2023-12-20T01:13:17;100391.31;;;6.25;100.00
55610;BME280;41486;52.502;13.486;2023-12-20T01:15:45;100391.22;;;6.27;100.00
55610;BME280;41486;52.502;13.486;2023-12-20T01:18:14;100385.59;;;6.33;100.00
55610;BME280;41486;52.502;13.486;2023-12-20T01:20:42;100391.16;;;6.28;100.00
55610;BME280;41486;52.502;13.486;2023-12-20T01:23:10;100392.72;;;6.31;100.00
55610;BME280;41486;52.502;13.486;2023-12-20T01:25:40;100387.50;;;6.31;100.00
55610;BME280;41486;52.502;13.486;2023-12-20T01:28:08;100385.91;;;6.28;100.00
55610;BME280;41486;52.502;13.486;2023-12-20T01:30:36;100389.66;;;6.24;100.00
55610;BME280;41486;52.502;13.486;2023-12-20T01:33:04;100389.47;;;6.27;100.00
55610;BME280;41486;52.502;13.486;2023-12-20T01:35:32;100389.25;;;6.30;100.00
55610;BME280;41486;52.502;13.486;2023-12-20T01:38:00;100386.09;;;6.25;100.00
55610;BME280;41486;52.502;13.486;2023-12-20T01:40:28;100395.13;;;6.34;100.00
55610;BME280;41486;52.502;13.486;2023-12-20T01:43:06;100386.56;;;6.32;100.00
55610;BME280;41486;52.502;13.486;2023-12-20T01:45:34;100391.03;;;6.30;100.00
55610;BME280;41486;52.502;13.486;2023-12-20T01:48:04;100383.38;;;6.27;100.00
55610;BME280;41486;52.502;13.486;2023-12-20T01:50:36;100393.38;;;6.35;100.00
55610;BME280;41486;52.502;13.486;2023-12-20T01:53:05;100383.31;;;6.28;100.00
55610;BME280;41486;52.502;13.486;2023-12-20T01:55:36;100388.44;;;6.30;100.00
55610;BME280;41486;52.502;13.486;2023-12-20T01:58:09;100384.25;;;6.27;100.00
55610;BME280;41486;52.502;13.486;2023-12-20T02:00:37;100390.00;;;6.32;100.00
55610;BME280;41486;52.502;13.486;2023-12-20T02:03:06;100389.72;;;6.37;100.00
55610;BME280;41486;52.502;13.486;2023-12-20T02:05:35;100381.81;;;6.24;100.00
55610;BME280;41486;52.502;13.486;2023-12-20T02:08:04;100384.97;;;6.29;100.00
55610;BME280;41486;52.502;13.486;2023-12-20T02:10:32;100380.47;;;6.31;100.00
55610;BME280;41486;52.502;13.486;2023-12-20T02:13:00;100383.09;;;6.31;100.00
55610;BME280;41486;52.502;13.486;2023-12-20T02:15:30;100376.84;;;6.34;100.00
55610;BME280;41486;52.502;13.486;2023-12-20T02:17:58;100378.22;;;6.40;100.00
55610;BME280;41486;52.502;13.486;2023-12-20T02:20:26;100393.38;;;6.35;100.00
55610;BME280;41486;52.502;13.486;2023-12-20T02:22:56;100384.31;;;6.26;100.00
55610;BME280;41486;52.502;13.486;2023-12-20T02:25:24;100366.81;;;6.13;100.00
55610;BME280;41486;52.502;13.486;2023-12-20T02:27:52;100349.94;;;6.05;100.00
55610;BME280;41486;52.502;13.486;2023-12-20T02:30:20;100347.97;;;6.08;100.00
55610;BME280;41486;52.502;13.486;2023-12-20T02:32:49;100332.19;;;6.10;100.00
55610;BME280;41486;52.502;13.486;2023-12-20T02:35:18;100339.00;;;6.12;100.00
55610;BME280;41486;52.502;13.486;2023-12-20T02:37:46;100358.31;;;6.10;100.00
55610;BME280;41486;52.502;13.486;2023-12-20T02:40:15;100361.28;;;6.18;100.00
55610;BME280;41486;52.502;13.486;2023-12-20T02:42:43;100339.53;;;6.18;100.00
55610;BME280;41486;52.502;13.486;2023-12-20T02:45:12;100342.06;;;6.19;100.00
55610;BME280;41486;52.502;13.486;2023-12-20T02:47:41;100340.53;;;6.29;100.00
55610;BME280;41486;52.502;13.486;2023-12-20T02:50:09;100349.28;;;6.15;100.00
55610;BME280;41486;52.502;13.486;2023-12-20T02:52:38;100354.00;;;6.23;100.00
55610;BME280;41486;52.502;13.486;2023-12-20T02:55:06;100351.19;;;6.26;100.00
55610;BME280;41486;52.502;13.486;2023-12-20T02:57:36;100354.56;;;6.28;100.00
55610;BME280;41486;52.502;13.486;2023-12-20T03:00:09;100355.69;;;6.24;100.00
55610;BME280;41486;52.502;13.486;2023-12-20T03:02:37;100352.78;;;6.29;100.00
55610;BME280;41486;52.502;13.486;2023-12-20T03:05:08;100349.63;;;6.24;100.00
55610;BME280;41486;52.502;13.486;2023-12-20T03:07:36;100339.06;;;6.25;100.00
55610;BME280;41486;52.502;13.486;2023-12-20T03:10:06;100340.53;;;6.29;100.00
55610;BME280;41486;52.502;13.486;2023-12-20T03:12:47;100340.25;;;6.34;100.00
55610;BME280;41486;52.502;13.486;2023-12-20T03:15:15;100344.81;;;6.30;100.00
55610;BME280;41486;52.502;13.486;2023-12-20T03:17:43;100341.56;;;6.27;100.00
55610;BME280;41486;52.502;13.486;2023-12-20T03:20:12;100337.84;;;6.31;100.00
55610;BME280;41486;52.502;13.486;2023-12-20T03:22:40;100340.53;;;6.29;100.00
55610;BME280;41486;52.502;13.486;2023-12-20T03:25:08;100355.09;;;6.34;100.00
55610;BME280;41486;52.502;13.486;2023-12-20T03:27:37;100346.63;;;6.30;100.00
55610;BME280;41486;52.502;13.486;2023-12-20T03:30:08;100346.63;;;6.30;100.00
55610;BME280;41486;52.502;13.486;2023-12-20T03:32:36;100334.38;;;6.30;100.00
55610;BME280;41486;52.502;13.486;2023-12-20T03:35:05;100343.38;;;6.26;100.00
55610;BME280;41486;52.502;13.486;2023-12-20T03:37:34;100347.56;;;6.29;100.00
55610;BME280;41486;52.502;13.486;2023-12-20T03:40:02;100344.94;;;6.29;100.00
55610;BME280;41486;52.502;13.486;2023-12-20T03:42:30;100355.38;;;6.29;100.00
55610;BME280;41486;52.502;13.486;2023-12-20T03:44:58;100351.84;;;6.30;100.00
55610;BME280;41486;52.502;13.486;2023-12-20T03:47:27;100348.47;;;6.28;100.00
55610;BME280;41486;52.502;13.486;2023-12-20T03:49:55;100344.28;;;6.25;100.00
55610;BME280;41486;52.502;13.486;2023-12-20T03:52:23;100342.44;;;6.27;100.00
55610;BME280;41486;52.502;13.486;2023-12-20T03:54:51;100337.38;;;6.24;100.00
55610;BME280;41486;52.502;13.486;2023-12-20T03:57:20;100333.03;;;6.38;100.00
55610;BME280;41486;52.502;13.486;2023-12-20T03:59:48;100339.25;;;6.37;100.00
55610;BME280;41486;52.502;13.486;2023-12-20T04:02:16;100333.41;;;6.46;100.00
55610;BME280;41486;52.502;13.486;2023-12-20T04:04:46;100319.03;;;6.39;100.00
55610;BME280;41486;52.502;13.486;2023-12-20T04:07:14;100328.84;;;6.35;100.00
55610;BME280;41486;52.502;13.486;2023-12-20T04:09:42;100332.41;;;6.34;100.00
55610;BME280;41486;52.502;13.486;2023-12-20T04:12:10;100327.47;;;6.29;100.00
55610;BME280;41486;52.502;13.486;2023-12-20T04:14:38;100315.53;;;6.25;100.00
55610;BME280;41486;52.502;13.486;2023-12-20T04:17:07;100311.44;;;6.21;100.00
55610;BME280;41486;52.502;13.486;2023-12-20T04:19:35;100309.56;;;6.23;100.00
55610;BME280;41486;52.502;13.486;2023-12-20T04:22:04;100313.50;;;6.16;100.00
55610;BME280;41486;52.502;13.486;2023-12-20T04:24:32;100312.41;;;6.20;100.00
55610;BME280;41486;52.502;13.486;2023-12-20T04:27:00;100308.94;;;6.20;100.00
55610;BME280;41486;52.502;13.486;2023-12-20T04:29:28;100308.09;;;6.19;100.00
55610;BME280;41486;52.502;13.486;2023-12-20T04:31:56;100305.09;;;6.25;100.00
55610;BME280;41486;52.502;13.486;2023-12-20T04:34:25;100298.59;;;6.18;100.00
55610;BME280;41486;52.502;13.486;2023-12-20T04:36:53;100305.19;;;6.24;100.00
55610;BME280;41486;52.502;13.486;2023-12-20T04:39:23;100311.09;;;6.13;100.00
55610;BME280;41486;52.502;13.486;2023-12-20T04:41:50;100309.22;;;6.15;100.00
55610;BME280;41486;52.502;13.486;2023-12-20T04:44:18;100307.75;;;6.11;100.00
55610;BME280;41486;52.502;13.486;2023-12-20T04:46:46;100310.53;;;6.08;100.00
55610;BME280;41486;52.502;13.486;2023-12-20T04:49:14;100314.09;;;6.07;100.00
55610;BME280;41486;52.502;13.486;2023-12-20T04:51:43;100315.59;;;6.11;100.00
55610;BME280;41486;52.502;13.486;2023-12-20T04:54:11;100303.84;;;6.04;100.00
55610;BME280;41486;52.502;13.486;2023-12-20T04:56:41;100305.53;;;6.05;100.00
55610;BME280;41486;52.502;13.486;2023-12-20T04:59:09;100296.00;;;6.04;100.00
55610;BME280;41486;52.502;13.486;2023-12-20T05:01:37;100299.91;;;5.96;100.00
55610;BME280;41486;52.502;13.486;2023-12-20T05:04:05;100307.00;;;5.94;100.00
55610;BME280;41486;52.502;13.486;2023-12-20T05:06:34;100303.94;;;5.88;100.00
55610;BME280;41486;52.502;13.486;2023-12-20T05:09:02;100306.34;;;5.91;100.00
55610;BME280;41486;52.502;13.486;2023-12-20T05:11:30;100324.91;;;5.86;100.00
55610;BME280;41486;52.502;13.486;2023-12-20T05:14:00;100317.47;;;5.80;100.00
55610;BME280;41486;52.502;13.486;2023-12-20T05:16:28;100307.69;;;5.83;100.00
55610;BME280;41486;52.502;13.486;2023-12-20T05:18:56;100303.34;;;5.97;100.00
55610;BME280;41486;52.502;13.486;2023-12-20T05:21:23;100309.63;;;5.94;100.00
55610;BME280;41486;52.502;13.486;2023-12-20T05:23:52;100322.50;;;5.83;100.00
55610;BME280;41486;52.502;13.486;2023-12-20T05:26:20;100315.22;;;5.88;100.00
55610;BME280;41486;52.502;13.486;2023-12-20T05:28:48;100311.97;;;5.84;100.00
55610;BME280;41486;52.502;13.486;2023-12-20T05:31:17;100309.28;;;5.72;100.00
55610;BME280;41486;52.502;13.486;2023-12-20T05:33:45;100313.47;;;5.74;100.00
55610;BME280;41486;52.502;13.486;2023-12-20T05:36:13;100316.72;;;5.63;100.00
55610;BME280;41486;52.502;13.486;2023-12-20T05:38:42;100318.41;;;5.64;100.00
55610;BME280;41486;52.502;13.486;2023-12-20T05:41:10;100312.63;;;5.59;100.00
55610;BME280;41486;52.502;13.486;2023-12-20T05:43:38;100305.66;;;5.60;100.00
55610;BME280;41486;52.502;13.486;2023-12-20T05:46:06;100304.34;;;5.52;100.00
55610;BME280;41486;52.502;13.486;2023-12-20T05:48:35;100317.00;;;5.44;100.00
55610;BME280;41486;52.502;13.486;2023-12-20T05:51:04;100310.00;;;5.45;100.00
55610;BME280;41486;52.502;13.486;2023-12-20T05:53:32;100303.97;;;5.44;100.00
55610;BME280;41486;52.502;13.486;2023-12-20T05:56:00;100304.41;;;5.36;100.00
55610;BME280;41486;52.502;13.486;2023-12-20T05:58:28;100299.19;;;5.36;100.00
55610;BME280;41486;52.502;13.486;2023-12-20T06:00:56;100293.75;;;5.25;100.00
55610;BME280;41486;52.502;13.486;2023-12-20T06:03:24;100312.59;;;5.16;100.00
55610;BME280;41486;52.502;13.486;2023-12-20T06:05:53;100302.44;;;5.26;100.00
55610;BME280;41486;52.502;13.486;2023-12-20T06:08:39;100302.63;;;5.22;100.00
55610;BME280;41486;52.502;13.486;2023-12-20T06:11:07;100292.38;;;5.19;100.00
55610;BME280;41486;52.502;13.486;2023-12-20T06:13:35;100293.03;;;5.09;100.00
55610;BME280;41486;52.502;13.486;2023-12-20T06:16:05;100287.88;;;5.21;100.00
55610;BME280;41486;52.502;13.486;2023-12-20T06:18:34;100287.88;;;5.07;100.00
55610;BME280;41486;52.502;13.486;2023-12-20T06:21:05;100294.78;;;5.08;100.00
55610;BME280;41486;52.502;13.486;2023-12-20T06:23:34;100285.19;;;5.09;100.00
55610;BME280;41486;52.502;13.486;2023-12-20T06:26:03;100282.88;;;5.04;100.00
55610;BME280;41486;52.502;13.486;2023-12-20T06:28:31;100278.09;;;5.11;100.00
55610;BME280;41486;52.502;13.486;2023-12-20T06:30:59;100283.78;;;5.03;100.00
55610;BME280;41486;52.502;13.486;2023-12-20T06:33:27;100283.19;;;4.98;100.00
55610;BME280;41486;52.502;13.486;2023-12-20T06:35:56;100296.84;;;5.03;100.00
55610;BME280;41486;52.502;13.486;2023-12-20T06:38:25;100295.03;;;5.03;100.00
55610;BME280;41486;52.502;13.486;2023-12-20T06:40:53;100295.16;;;5.02;100.00
55610;BME280;41486;52.502;13.486;2023-12-20T06:43:24;100291.50;;;5.04;100.00
55610;BME280;41486;52.502;13.486;2023-12-20T06:46:12;100300.16;;;5.05;100.00
55610;BME280;41486;52.502;13.486;2023-12-20T06:48:40;100305.31;;;5.07;100.00
55610;BME280;41486;52.502;13.486;2023-12-20T06:51:11;100294.66;;;4.95;100.00
55610;BME280;41486;52.502;13.486;2023-12-20T06:53:41;100290.19;;;4.97;100.00
55610;BME280;41486;52.502;13.486;2023-12-20T06:56:10;100282.00;;;5.03;100.00
55610;BME280;41486;52.502;13.486;2023-12-20T06:58:41;100290.75;;;5.02;100.00
55610;BME280;41486;52.502;13.486;2023-12-20T07:01:11;100286.28;;;4.90;100.00
55610;BME280;41486;52.502;13.486;2023-12-20T07:03:42;100283.47;;;4.93;100.00
55610;BME280;41486;52.502;13.486;2023-12-20T07:06:10;100293.16;;;4.91;100.00
55610;BME280;41486;52.502;13.486;2023-12-20T07:08:41;100294.91;;;4.90;100.00
55610;BME280;41486;52.502;13.486;2023-12-20T07:11:09;100284.75;;;4.86;100.00
55610;BME280;41486;52.502;13.486;2023-12-20T07:13:37;100280.66;;;4.82;100.00
55610;BME280;41486;52.502;13.486;2023-12-20T07:16:06;100281.63;;;4.95;100.00
55610;BME280;41486;52.502;13.486;2023-12-20T07:18:34;100280.88;;;4.93;100.00
55610;BME280;41486;52.502;13.486;2023-12-20T07:21:02;100285.91;;;4.96;100.00
55610;BME280;41486;52.502;13.486;2023-12-20T07:23:34;100285.91;;;4.96;100.00
55610;BME280;41486;52.502;13.486;2023-12-20T07:26:04;100283.03;;;5.01;100.00
55610;BME280;41486;52.502;13.486;2023-12-20T07:28:32;100285.75;;;4.99;100.00
55610;BME280;41486;52.502;13.486;2023-12-20T07:31:00;100288.09;;;5.04;100.00
55610;BME280;41486;52.502;13.486;2023-12-20T07:33:28;100283.31;;;4.96;100.00
55610;BME280;41486;52.502;13.486;2023-12-20T07:36:06;100276.63;;;5.07;100.00
55610;BME280;41486;52.502;13.486;2023-12-20T07:38:34;100273.09;;;5.08;100.00
55610;BME280;41486;52.502;13.486;2023-12-20T07:41:03;100265.06;;;5.11;100.00
55610;BME280;41486;52.502;13.486;2023-12-20T07:43:33;100262.84;;;5.19;100.00
55610;BME280;41486;52.502;13.486;2023-12-20T07:46:04;100269.63;;;5.07;100.00
55610;BME280;41486;52.502;13.486;2023-12-20T07:48:33;100269.63;;;5.07;100.00
55610;BME280;41486;52.502;13.486;2023-12-20T07:51:02;100263.31;;;5.11;100.00
55610;BME280;41486;52.502;13.486;2023-12-20T07:53:30;100260.78;;;5.10;100.00
55610;BME280;41486;52.502;13.486;2023-12-20T07:55:58;100272.88;;;5.11;100.00
55610;BME280;41486;52.502;13.486;2023-12-20T07:58:27;100263.03;;;5.16;100.00
55610;BME280;41486;52.502;13.486;2023-12-20T08:01:16;100267.50;;;5.14;100.00
55610;BME280;41486;52.502;13.486;2023-12-20T08:03:44;100269.91;;;5.17;100.00
55610;BME280;41486;52.502;13.486;2023-12-20T08:06:15;100266.63;;;5.13;100.00
55610;BME280;41486;52.502;13.486;2023-12-20T08:08:44;100272.34;;;5.20;100.00
55610;BME280;41486;52.502;13.486;2023-12-20T08:11:20;100269.47;;;5.25;100.00
55610;BME280;41486;52.502;13.486;2023-12-20T08:13:53;100277.94;;;5.28;100.00
55610;BME280;41486;52.502;13.486;2023-12-20T08:16:21;100271.97;;;5.26;100.00
55610;BME280;41486;52.502;13.486;2023-12-20T08:18:51;100276.63;;;5.35;100.00
55610;BME280;41486;52.502;13.486;2023-12-20T08:21:20;100266.19;;;5.35;100.00
55610;BME280;41486;52.502;13.486;2023-12-20T08:23:51;100271.03;;;5.42;100.00
55610;BME280;41486;52.502;13.486;2023-12-20T08:26:19;100277.00;;;5.29;100.00
55610;BME280;41486;52.502;13.486;2023-12-20T08:28:51;100267.78;;;5.24;100.00
55610;BME280;41486;52.502;13.486;2023-12-20T08:31:26;100274.78;;;5.37;100.00
55610;BME280;41486;52.502;13.486;2023-12-20T08:33:57;100269.19;;;5.29;100.00
55610;BME280;41486;52.502;13.486;2023-12-20T08:36:26;100286.63;;;5.29;100.00
55610;BME280;41486;52.502;13.486;2023-12-20T08:38:55;100265.44;;;5.33;100.00
55610;BME280;41486;52.502;13.486;2023-12-20T08:41:24;100263.03;;;5.30;100.00
55610;BME280;41486;52.502;13.486;2023-12-20T08:43:54;100259.69;;;5.28;100.00
55610;BME280;41486;52.502;13.486;2023-12-20T08:46:22;100262.84;;;5.33;100.00
55610;BME280;41486;52.502;13.486;2023-12-20T08:48:51;100252.31;;;5.35;100.00
55610;BME280;41486;52.502;13.486;2023-12-20T08:51:20;100245.91;;;5.41;100.00
55610;BME280;41486;52.502;13.486;2023-12-20T08:53:51;100246.44;;;5.46;100.00
55610;BME280;41486;52.502;13.486;2023-12-20T08:56:19;100238.50;;;5.47;100.00
55610;BME280;41486;52.502;13.486;2023-12-20T08:58:48;100238.78;;;5.43;100.00
55610;BME280;41486;52.502;13.486;2023-12-20T09:01:17;100231.25;;;5.52;100.00
55610;BME280;41486;52.502;13.486;2023-12-20T09:03:46;100230.41;;;5.52;100.00
55610;BME280;41486;52.502;13.486;2023-12-20T09:06:15;100238.34;;;5.50;100.00
55610;BME280;41486;52.502;13.486;2023-12-20T09:08:44;100237.19;;;5.55;100.00
55610;BME280;41486;52.502;13.486;2023-12-20T09:11:19;100249.97;;;5.59;100.00
55610;BME280;41486;52.502;13.486;2023-12-20T09:13:48;100241.75;;;5.65;100.00
55610;BME280;41486;52.502;13.486;2023-12-20T09:16:18;100243.91;;;5.73;100.00
55610;BME280;41486;52.502;13.486;2023-12-20T09:18:47;100241.75;;;5.65;100.00
55610;BME280;41486;52.502;13.486;2023-12-20T09:21:15;100249.50;;;5.67;100.00
55610;BME280;41486;52.502;13.486;2023-12-20T09:23:44;100259.47;;;5.75;100.00
55610;BME280;41486;52.502;13.486;2023-12-20T09:26:13;100237.84;;;5.73;100.00
55610;BME280;41486;52.502;13.486;2023-12-20T09:28:41;100232.63;;;5.73;100.00
55610;BME280;41486;52.502;13.486;2023-12-20T09:31:10;100237.53;;;5.77;100.00
55610;BME280;41486;52.502;13.486;2023-12-20T09:33:43;100229.28;;;5.71;100.00
55610;BME280;41486;52.502;13.486;2023-12-20T09:36:14;100236.88;;;5.74;100.00
55610;BME280;41486;52.502;13.486;2023-12-20T09:38:43;100235.97;;;5.75;100.00
55610;BME280;41486;52.502;13.486;2023-12-20T09:41:13;100239.31;;;5.77;100.00
55610;BME280;41486;52.502;13.486;2023-12-20T09:43:43;100225.22;;;5.79;100.00
55610;BME280;41486;52.502;13.486;2023-12-20T09:46:12;100231.50;;;5.77;100.00
55610;BME280;41486;52.502;13.486;2023-12-20T09:48:45;100242.03;;;5.75;100.00
55610;BME280;41486;52.502;13.486;2023-12-20T09:51:15;100241.81;;;5.78;100.00
55610;BME280;41486;52.502;13.486;2023-12-20T09:53:44;100234.19;;;5.75;100.00
55610;BME280;41486;52.502;13.486;2023-12-20T09:56:16;100221.97;;;5.76;100.00
55610;BME280;41486;52.502;13.486;2023-12-20T09:58:44;100226.16;;;5.78;100.00
55610;BME280;41486;52.502;13.486;2023-12-20T10:01:14;100221.44;;;5.71;100.00
55610;BME280;41486;52.502;13.486;2023-12-20T10:03:45;100212.66;;;5.72;100.00
55610;BME280;41486;52.502;13.486;2023-12-20T10:06:14;100211.06;;;5.83;100.00
55610;BME280;41486;52.502;13.486;2023-12-20T10:08:45;100208.97;;;5.89;100.00
55610;BME280;41486;52.502;13.486;2023-12-20T10:11:13;100192.38;;;5.90;100.00
55610;BME280;41486;52.502;13.486;2023-12-20T10:13:42;100187.34;;;5.87;100.00
55610;BME280;41486;52.502;13.486;2023-12-20T10:16:11;100190.31;;;5.95;100.00
55610;BME280;41486;52.502;13.486;2023-12-20T10:18:40;100188.84;;;5.91;100.00
55610;BME280;41486;52.502;13.486;2023-12-20T10:21:10;100177.84;;;6.00;100.00
55610;BME280;41486;52.502;13.486;2023-12-20T10:23:38;100181.75;;;5.93;100.00
55610;BME280;41486;52.502;13.486;2023-12-20T10:26:10;100177.84;;;6.00;100.00
55610;BME280;41486;52.502;13.486;2023-12-20T10:28:50;100167.09;;;6.05;100.00
55610;BME280;41486;52.502;13.486;2023-12-20T10:31:26;100160.91;;;6.06;100.00
55610;BME280;41486;52.502;13.486;2023-12-20T10:33:57;100153.81;;;6.08;100.00
55610;BME280;41486;52.502;13.486;2023-12-20T10:36:29;100160.72;;;6.09;100.00
55610;BME280;41486;52.502;13.486;2023-12-20T10:38:58;100156.00;;;6.14;100.00
55610;BME280;41486;52.502;13.486;2023-12-20T10:41:28;100146.41;;;6.14;100.00
55610;BME280;41486;52.502;13.486;2023-12-20T10:44:02;100155.06;;;6.15;100.00
55610;BME280;41486;52.502;13.486;2023-12-20T10:46:31;100140.44;;;6.12;100.00
55610;BME280;41486;52.502;13.486;2023-12-20T10:49:02;100137.34;;;6.20;100.00
55610;BME280;41486;52.502;13.486;2023-12-20T10:51:33;100120.00;;;6.19;100.00
55610;BME280;41486;52.502;13.486;2023-12-20T10:54:02;100125.53;;;6.14;100.00
55610;BME280;41486;52.502;13.486;2023-12-20T10:56:32;100120.19;;;6.16;100.00
55610;BME280;41486;52.502;13.486;2023-12-20T10:59:03;100124.66;;;6.14;100.00
55610;BME280;41486;52.502;13.486;2023-12-20T11:01:33;100124.34;;;6.19;100.00
55610;BME280;41486;52.502;13.486;2023-12-20T11:04:06;100116.84;;;6.27;100.00
55610;BME280;41486;52.502;13.486;2023-12-20T11:06:45;100111.00;;;6.23;100.00
55610;BME280;41486;52.502;13.486;2023-12-20T11:09:22;100101.59;;;6.21;100.00
55610;BME280;41486;52.502;13.486;2023-12-20T11:12:04;100098.16;;;6.20;100.00
55610;BME280;41486;52.502;13.486;2023-12-20T11:14:41;100100.34;;;6.26;100.00
55610;BME280;41486;52.502;13.486;2023-12-20T11:17:11;100090.41;;;6.31;100.00
55610;BME280;41486;52.502;13.486;2023-12-20T11:20:03;100081.28;;;6.11;100.00
55610;BME280;41486;52.502;13.486;2023-12-20T11:22:34;100084.84;;;6.10;100.00
55610;BME280;41486;52.502;13.486;2023-12-20T11:25:09;100071.72;;;5.97;100.00
55610;BME280;41486;52.502;13.486;2023-12-20T11:27:41;100072.19;;;6.04;100.00
55610;BME280;41486;52.502;13.486;2023-12-20T11:30:12;100063.63;;;6.02;100.00
55610;BME280;41486;52.502;13.486;2023-12-20T11:32:42;100058.78;;;5.96;100.00
55610;BME280;41486;52.502;13.486;2023-12-20T11:35:18;100066.72;;;5.94;100.00
55610;BME280;41486;52.502;13.486;2023-12-20T11:37:51;100051.16;;;5.93;100.00
55610;BME280;41486;52.502;13.486;2023-12-20T11:40:19;100039.34;;;5.87;100.00
55610;BME280;41486;52.502;13.486;2023-12-20T11:42:49;100049.88;;;5.85;100.00
55610;BME280;41486;52.502;13.486;2023-12-20T11:45:19;100033.50;;;5.83;100.00
55610;BME280;41486;52.502;13.486;2023-12-20T11:47:49;100023.75;;;5.85;100.00
55610;BME280;41486;52.502;13.486;2023-12-20T11:50:20;100011.03;;;5.94;100.00
55610;BME280;41486;52.502;13.486;2023-12-20T11:52:52;100017.09;;;5.94;100.00
55610;BME280;41486;52.502;13.486;2023-12-20T11:55:21;100027.56;;;5.94;100.00
55610;BME280;41486;52.502;13.486;2023-12-20T11:57:51;100017.84;;;5.96;100.00
55610;BME280;41486;52.502;13.486;2023-12-20T12:00:20;100010.72;;;5.98;100.00
55610;BME280;41486;52.502;13.486;2023-12-20T12:02:58;100005.81;;;5.94;100.00
55610;BME280;41486;52.502;13.486;2023-12-20T12:05:30;100000.50;;;5.95;100.00
55610;BME280;41486;52.502;13.486;2023-12-20T12:08:01;99998.81;;;5.94;100.00
55610;BME280;41486;52.502;13.486;2023-12-20T12:10:31;99980.03;;;6.02;100.00
55610;BME280;41486;52.502;13.486;2023-12-20T12:13:01;99983.50;;;6.03;100.00
55610;BME280;41486;52.502;13.486;2023-12-20T12:15:29;99965.41;;;5.99;100.00
55610;BME280;41486;52.502;13.486;2023-12-20T12:17:58;99955.50;;;6.05;100.00
55610;BME280;41486;52.502;13.486;2023-12-20T12:20:27;99962.19;;;6.09;100.00
55610;BME280;41486;52.502;13.486;2023-12-20T12:23:02;99947.97;;;6.13;100.00
55610;BME280;41486;52.502;13.486;2023-12-20T12:25:32;99952.25;;;6.14;100.00
55610;BME280;41486;52.502;13.486;2023-12-20T12:28:08;99943.16;;;6.07;100.00
55610;BME280;41486;52.502;13.486;2023-12-20T12:30:37;99936.56;;;6.01;100.00
55610;BME280;41486;52.502;13.486;2023-12-20T12:33:19;99917.00;;;5.94;100.00
55610;BME280;41486;52.502;13.486;2023-12-20T12:35:48;99934.03;;;5.87;100.00
55610;BME280;41486;52.502;13.486;2023-12-20T12:38:20;99939.69;;;5.80;100.00
55610;BME280;41486;52.502;13.486;2023-12-20T12:40:49;99933.97;;;5.75;100.00
55610;BME280;41486;52.502;13.486;2023-12-20T12:43:17;99926.94;;;5.63;100.00
55610;BME280;41486;52.502;13.486;2023-12-20T12:45:45;99919.09;;;5.50;100.00
55610;BME280;41486;52.502;13.486;2023-12-20T12:48:14;99909.91;;;5.44;100.00
55610;BME280;41486;52.502;13.486;2023-12-20T12:50:42;99912.63;;;5.43;100.00
55610;BME280;41486;52.502;13.486;2023-12-20T12:53:10;99895.50;;;5.39;100.00